Time;durP1;ratioP1;P1;durP2;ratioP2;P2;SDS_P1;SDS_P2;PMS_P1;PMS_P2;Temp;Humidity;BMP_temperature;BMP_pressure;BME280_temperature;BME280_humidity;BME280_pressure;Samples;Min_cycle;Max_cycle;Signal;HPM_P1;HPM_P2
2021/04/12 00:05:09;;;;;;;0.73;0.30;;;9.70;68.00;;;;;;20727620;28;20034;-72
2021/04/12 00:15:42;;;;;;;3.20;0.30;;;9.70;68.00;;;;;;20710616;28;20042;-72
2021/04/12 00:25:56;;;;;;;0.40;0.20;;;9.70;67.90;;;;;;20723323;28;20046;-71
2021/04/12 00:36:21;;;;;;;2.72;0.30;;;9.70;67.90;;;;;;20740692;28;20527;-72
2021/04/12 00:46:38;;;;;;;1.00;0.32;;;9.70;67.80;;;;;;20708866;28;20041;-72
2021/04/12 00:56:45;;;;;;;0.70;0.38;;;9.60;67.70;;;;;;20739914;28;20060;-71
2021/04/12 01:06:59;;;;;;;0.15;0.15;;;9.60;67.70;;;;;;20723357;28;20036;-72
2021/04/12 01:17:50;;;;;;;0.20;0.20;;;9.60;68.20;;;;;;20738191;28;20045;-72
2021/04/12 01:28:10;;;;;;;0.93;0.15;;;9.60;67.60;;;;;;20601714;28;20056;-71
2021/04/12 01:38:28;;;;;;;0.70;0.15;;;9.60;67.50;;;;;;20614686;28;20488;-74
2021/04/12 01:48:41;;;;;;;0.10;0.10;;;9.60;67.40;;;;;;20598603;28;20105;-72
2021/04/12 01:58:58;;;;;;;0.13;0.10;;;9.60;67.50;;;;;;20559047;28;20437;-73
2021/04/12 02:09:23;;;;;;;0.77;0.40;;;9.60;67.40;;;;;;20551492;28;20039;-72
2021/04/12 02:19:32;;;;;;;0.10;0.10;;;9.60;67.40;;;;;;20559998;28;20035;-72
2021/04/12 02:29:55;;;;;;;0.75;0.40;;;9.60;67.30;;;;;;20573010;28;20078;-71
2021/04/12 02:40:10;;;;;;;0.10;0.10;;;9.50;67.20;;;;;;20589102;28;20039;-71
2021/04/12 02:50:13;;;;;;;0.10;0.10;;;9.60;67.20;;;;;;20555710;28;20101;-71
2021/04/12 03:00:33;;;;;;;3.00;0.10;;;9.50;67.20;;;;;;20588573;28;20035;-72
2021/04/12 03:11:06;;;;;;;0.77;0.45;;;9.50;67.10;;;;;;20585417;28;20037;-72
2021/04/12 03:21:19;;;;;;;1.65;0.60;;;9.50;66.90;;;;;;20569297;28;20046;-73
2021/04/12 03:32:04;;;;;;;0.00;0.00;;;9.50;66.90;;;;;;20534010;28;20045;-76
2021/04/12 03:42:30;;;;;;;0.10;0.10;;;9.50;66.80;;;;;;20381165;28;20054;-76
2021/04/12 03:53:09;;;;;;;0.40;0.30;;;9.50;66.80;;;;;;20409194;28;20149;-74
2021/04/12 04:03:25;;;;;;;0.10;0.10;;;9.50;66.60;;;;;;20428017;28;20128;-74
2021/04/12 04:13:42;;;;;;;0.40;0.28;;;9.40;66.60;;;;;;20426388;28;20282;-74
2021/04/12 04:23:46;;;;;;;0.17;0.17;;;9.50;66.50;;;;;;20409639;28;20458;-74
2021/04/12 04:34:14;;;;;;;0.20;0.20;;;9.50;66.60;;;;;;20404735;28;20317;-74
2021/04/12 04:44:39;;;;;;;0.90;0.25;;;9.40;66.40;;;;;;20408156;28;20041;-74
2021/04/12 04:55:17;;;;;;;0.17;0.13;;;9.50;66.40;;;;;;20415787;28;20032;-74
2021/04/12 05:05:33;;;;;;;0.20;0.20;;;9.40;66.30;;;;;;20412889;28;20436;-75
2021/04/12 05:15:47;;;;;;;0.20;0.20;;;9.40;66.30;;;;;;20408713;28;20032;-75
2021/04/12 05:26:15;;;;;;;0.20;0.15;;;9.40;66.30;;;;;;20406289;28;20034;-75
2021/04/12 05:36:19;;;;;;;0.77;0.10;;;9.40;66.30;;;;;;20408405;28;20132;-72
2021/04/12 05:46:52;;;;;;;0.55;0.28;;;9.40;66.30;;;;;;20436540;28;20057;-76
2021/04/12 05:57:31;;;;;;;0.10;0.10;;;9.40;66.20;;;;;;20437988;28;20923;-74
2021/04/12 06:08:05;;;;;;;0.33;0.20;;;9.40;66.20;;;;;;20452653;28;20332;-75
2021/04/12 06:18:18;;;;;;;8.48;0.38;;;9.40;66.20;;;;;;20437239;28;20125;-74
2021/04/12 06:28:33;;;;;;;0.17;0.17;;;9.40;66.20;;;;;;20420473;28;20544;-75
2021/04/12 06:38:45;;;;;;;0.10;0.10;;;9.40;66.20;;;;;;20414412;28;20069;-76
2021/04/12 06:49:13;;;;;;;0.10;0.10;;;9.40;66.20;;;;;;20409438;28;20078;-74
2021/04/12 06:59:35;;;;;;;4.32;0.25;;;9.40;66.10;;;;;;20430129;28;20622;-73
2021/04/12 07:10:09;;;;;;;0.30;0.20;;;9.30;65.90;;;;;;20410872;28;20050;-75
2021/04/12 07:20:32;;;;;;;0.00;0.00;;;9.40;65.90;;;;;;20419821;28;20811;-74
2021/04/12 07:30:45;;;;;;;0.10;0.10;;;9.30;65.70;;;;;;20421580;28;20053;-74
2021/04/12 07:41:22;;;;;;;0.20;0.10;;;9.40;65.80;;;;;;20408856;28;20038;-75
2021/04/12 07:51:52;;;;;;;0.30;0.15;;;9.30;65.70;;;;;;20410658;28;20034;-75
2021/04/12 08:02:17;;;;;;;0.08;0.08;;;9.30;65.60;;;;;;20392703;28;20054;-74
2021/04/12 08:12:45;;;;;;;0.10;0.10;;;9.30;65.60;;;;;;20440469;28;20033;-72
2021/04/12 08:23:13;;;;;;;0.10;0.10;;;9.30;65.60;;;;;;20391079;28;20034;-73
2021/04/12 08:33:36;;;;;;;5.72;0.30;;;9.30;65.50;;;;;;20861838;23;20571;-75
2021/04/12 08:43:55;;;;;;;0.10;0.10;;;9.30;65.50;;;;;;20597250;28;20043;-75
2021/04/12 08:54:31;;;;;;;0.10;0.10;;;9.30;65.50;;;;;;20567679;28;20374;-74
2021/04/12 09:05:12;;;;;;;0.20;0.20;;;9.30;65.40;;;;;;20592460;28;20044;-74
2021/04/12 09:15:41;;;;;;;0.13;0.13;;;9.30;65.30;;;;;;20631601;28;20053;-72
2021/04/12 09:26:06;;;;;;;0.10;0.10;;;9.30;65.20;;;;;;20643987;28;20046;-74
2021/04/12 09:36:12;;;;;;;0.10;0.10;;;9.40;65.20;;;;;;20626932;28;20038;-77
2021/04/12 09:47:04;;;;;;;0.10;0.10;;;9.30;65.10;;;;;;20568929;28;20058;-75
2021/04/12 09:57:29;;;;;;;1.15;0.50;;;9.40;64.90;;;;;;20405624;28;20046;-78
2021/04/12 10:07:58;;;;;;;0.15;0.15;;;9.40;64.90;;;;;;20390727;28;20034;-79
2021/04/12 10:18:14;;;;;;;0.15;0.15;;;9.40;64.70;;;;;;20424303;28;20030;-77
2021/04/12 10:28:24;;;;;;;0.10;0.10;;;9.40;64.40;;;;;;20632387;28;20038;-73
2021/04/12 10:38:39;;;;;;;0.05;0.05;;;9.40;64.50;;;;;;20622736;28;20493;-76
2021/04/12 10:48:51;;;;;;;0.10;0.10;;;9.40;64.20;;;;;;20564631;28;20034;-74
2021/04/12 10:59:25;;;;;;;0.30;0.20;;;9.40;64.10;;;;;;20630528;28;20042;-73
2021/04/12 11:09:33;;;;;;;0.10;0.10;;;9.40;63.70;;;;;;20667881;28;20030;-73
2021/04/12 11:19:39;;;;;;;0.20;0.20;;;9.40;63.70;;;;;;20644478;28;20129;-77
2021/04/12 11:29:41;;;;;;;0.03;0.03;;;9.40;63.60;;;;;;20628340;28;20114;-74
2021/04/12 11:39:43;;;;;;;0.10;0.10;;;9.40;63.40;;;;;;20568242;28;20034;-75
2021/04/12 11:50:11;;;;;;;0.10;0.10;;;9.40;63.20;;;;;;20553457;28;20038;-74
2021/04/12 12:00:21;;;;;;;0.10;0.10;;;9.40;62.80;;;;;;20650109;28;20046;-71
2021/04/12 12:10:40;;;;;;;4.57;0.10;;;9.40;62.90;;;;;;20632351;28;20038;-73
2021/04/12 12:20:47;;;;;;;1.02;0.28;;;9.40;62.50;;;;;;20639014;28;20046;-71
2021/04/12 12:31:07;;;;;;;0.10;0.10;;;9.40;62.60;;;;;;20582269;28;20105;-71
2021/04/12 12:41:19;;;;;;;0.45;0.05;;;9.40;62.50;;;;;;20585937;28;20050;-72
2021/04/12 12:51:33;;;;;;;0.32;0.30;;;9.40;62.20;;;;;;20624406;28;20038;-72
2021/04/12 13:01:37;;;;;;;0.10;0.10;;;9.40;61.80;;;;;;20636123;28;20042;-72
2021/04/12 13:11:46;;;;;;;0.50;0.43;;;9.40;61.70;;;;;;20637953;28;20063;-72
2021/04/12 13:21:59;;;;;;;0.00;0.00;;;9.40;61.60;;;;;;20621570;28;20046;-74
2021/04/12 13:32:09;;;;;;;0.43;0.43;;;9.40;61.30;;;;;;20575401;28;20054;-75
2021/04/12 13:42:19;;;;;;;0.20;0.20;;;9.50;61.10;;;;;;20641627;28;20050;-74
2021/04/12 13:52:22;;;;;;;0.08;0.08;;;9.50;60.90;;;;;;20639743;28;20112;-75
2021/04/12 14:02:27;;;;;;;0.25;0.25;;;9.50;60.70;;;;;;20660875;28;20104;-73
2021/04/12 14:12:29;;;;;;;0.00;0.00;;;9.50;60.50;;;;;;20599882;28;20473;-73
2021/04/12 14:22:32;;;;;;;0.00;0.00;;;9.60;60.10;;;;;;20618746;28;20436;-74
2021/04/12 14:32:50;;;;;;;2.58;0.30;;;9.60;60.10;;;;;;20652786;28;20393;-73
2021/04/12 14:43:14;;;;;;;0.53;0.20;;;9.60;60.00;;;;;;20593314;28;20042;-75
2021/04/12 14:53:17;;;;;;;0.10;0.10;;;9.60;60.30;;;;;;20667751;28;20285;-73
2021/04/12 15:03:52;;;;;;;0.03;0.03;;;9.70;60.50;;;;;;20653220;28;20034;-73
2021/04/12 15:14:03;;;;;;;0.10;0.10;;;9.80;59.90;;;;;;20585030;28;20406;-74
2021/04/12 15:24:08;;;;;;;0.10;0.10;;;10.00;59.90;;;;;;20636409;28;20030;-74
2021/04/12 15:34:10;;;;;;;0.10;0.10;;;10.00;59.40;;;;;;20628346;28;20034;-74
2021/04/12 15:44:20;;;;;;;3.67;0.10;;;10.10;58.90;;;;;;20630971;28;20034;-73
2021/04/12 15:54:24;;;;;;;0.10;0.10;;;10.10;58.10;;;;;;20658722;28;20477;-73
2021/04/12 16:04:57;;;;;;;0.10;0.10;;;10.10;57.80;;;;;;20567650;28;20041;-73
2021/04/12 16:15:13;;;;;;;0.08;0.08;;;10.10;57.80;;;;;;20602024;28;20205;-76
2021/04/12 16:25:47;;;;;;;0.20;0.20;;;10.00;58.00;;;;;;20618026;28;20034;-75
2021/04/12 16:36:20;;;;;;;0.85;0.57;;;9.90;58.40;;;;;;20647732;28;20058;-75
2021/04/12 16:46:56;;;;;;;0.45;0.45;;;9.90;58.50;;;;;;20635996;28;20504;-75
2021/04/12 16:57:21;;;;;;;0.10;0.10;;;9.90;58.80;;;;;;20578634;28;20050;-77
2021/04/12 17:07:47;;;;;;;0.52;0.30;;;9.90;59.20;;;;;;20555632;28;20060;-76
2021/04/12 17:17:51;;;;;;;1.30;0.20;;;9.90;59.40;;;;;;20555055;28;20039;-75
2021/04/12 17:28:22;;;;;;;1.33;0.43;;;9.90;59.60;;;;;;20546457;28;20035;-75
2021/04/12 17:38:26;;;;;;;0.32;0.20;;;9.80;59.60;;;;;;20634914;28;20070;-76
2021/04/12 17:48:48;;;;;;;0.68;0.15;;;9.80;59.30;;;;;;20656958;28;20034;-76
2021/04/12 17:59:06;;;;;;;0.57;0.22;;;9.80;59.30;;;;;;20641284;28;20538;-75
2021/04/12 18:09:07;;;;;;;;;;;9.70;59.30;;;;;;20639633;28;20066;-75
2021/04/12 18:19:19;;;;;;;0.52;0.22;;;9.60;59.30;;;;;;20657956;28;19918;-74
2021/04/12 18:29:32;;;;;;;0.30;0.10;;;9.70;59.50;;;;;;20640641;28;20149;-74
2021/04/12 18:40:18;;;;;;;0.17;0.17;;;9.60;59.60;;;;;;20644872;28;20042;-73
2021/04/12 18:50:31;;;;;;;0.10;0.10;;;9.60;59.70;;;;;;20630471;28;20404;-73
2021/04/12 19:00:41;;;;;;;0.10;0.10;;;9.60;59.90;;;;;;20669515;28;20034;-74
2021/04/12 19:10:54;;;;;;;2.40;0.40;;;9.60;60.00;;;;;;20624732;28;20485;-72
2021/04/12 19:21:24;;;;;;;0.00;0.00;;;9.60;60.30;;;;;;20555928;28;20049;-73
2021/04/12 19:31:44;;;;;;;0.10;0.10;;;9.50;60.50;;;;;;20587467;28;20046;-72
2021/04/12 19:42:12;;;;;;;0.08;0.08;;;9.50;60.80;;;;;;20638542;28;20045;-73
2021/04/12 19:52:12;;;;;;;0.10;0.10;;;9.50;61.00;;;;;;20633992;28;20113;-73
2021/04/12 20:02:19;;;;;;;0.20;0.20;;;9.50;61.10;;;;;;20622521;28;20125;-73
2021/04/12 20:12:53;;;;;;;0.10;0.10;;;9.50;61.30;;;;;;20603710;28;20084;-74
2021/04/12 20:23:00;;;;;;;0.00;0.00;;;9.50;61.50;;;;;;20632559;28;20488;-73
2021/04/12 20:33:17;;;;;;;0.10;0.10;;;9.50;61.60;;;;;;20662479;28;20051;-74
2021/04/12 20:43:45;;;;;;;0.37;0.37;;;9.50;61.70;;;;;;20645975;28;20065;-74
2021/04/12 20:53:56;;;;;;;0.52;0.30;;;9.50;61.80;;;;;;20661272;28;20389;-75
2021/04/12 21:04:15;;;;;;;1.38;0.28;;;9.50;61.80;;;;;;20629002;28;20476;-74
2021/04/12 21:14:34;;;;;;;0.10;0.10;;;9.50;62.00;;;;;;20645935;28;20114;-75
2021/04/12 21:24:35;;;;;;;0.10;0.10;;;9.50;62.00;;;;;;20627722;28;20463;-75
2021/04/12 21:34:37;;;;;;;0.10;0.10;;;9.40;62.00;;;;;;20622115;28;20660;-74
2021/04/12 21:45:02;;;;;;;0.77;0.15;;;9.40;62.10;;;;;;20641823;28;20472;-74
2021/04/12 21:55:14;;;;;;;0.28;0.28;;;9.50;62.20;;;;;;20629493;28;20043;-75
2021/04/12 22:05:28;;;;;;;0.40;0.20;;;9.40;62.20;;;;;;20625500;28;20062;-75
2021/04/12 22:15:36;;;;;;;0.10;0.10;;;9.40;62.20;;;;;;20657122;28;20124;-75
2021/04/12 22:25:51;;;;;;;0.10;0.10;;;9.40;62.30;;;;;;20664548;28;20038;-75
2021/04/12 22:46:58;;;;;;;0.20;0.20;;;9.40;62.40;;;;;;20657325;28;20528;-74
2021/04/12 23:07:42;;;;;;;0.28;0.22;;;9.40;62.40;;;;;;20639532;28;20336;-77
2021/04/12 23:17:43;;;;;;;0.60;0.60;;;9.40;62.40;;;;;;20669652;28;20485;-74
2021/04/12 23:27:44;;;;;;;0.10;0.10;;;9.40;62.40;;;;;;20635603;28;20081;-75
2021/04/12 23:37:45;;;;;;;0.80;0.52;;;9.40;62.40;;;;;;20634363;28;20042;-75
2021/04/12 23:47:52;;;;;;;0.73;0.32;;;9.30;62.40;;;;;;20650741;28;20380;-75
2021/04/12 23:57:53;;;;;;;0.10;0.10;;;9.40;62.50;;;;;;20634255;28;20034;-75
